Time;durP1;ratioP1;P1;durP2;ratioP2;P2;SDS_P1;SDS_P2;PMS_P1;PMS_P2;Temp;Humidity;BMP_temperature;BMP_pressure;BME280_temperature;BME280_humidity;BME280_pressure;Samples;Min_cycle;Max_cycle;Signal;HPM_P1;HPM_P2
2022/02/04 00:08:06;;;;;;;0.32;0.32;;;;;;;;;;5077419;28;20072;-78
2022/02/04 00:21:53;;;;;;;1.27;1.13;;;;;;;;;;5065941;28;20066;-78
2022/02/04 00:24:20;;;;;;;0.47;0.43;;;;;;;;;;5065427;28;20500;-78
2022/02/04 00:26:56;;;;;;;0.10;0.10;;;;;;;;;;5079150;28;20098;-78
2022/02/04 00:29:25;;;;;;;0.00;0.00;;;;;;;;;;5068784;28;20563;-78
2022/02/04 00:31:56;;;;;;;0.47;0.47;;;;;;;;;;5068726;28;20044;-78
2022/02/04 00:34:24;;;;;;;0.60;0.55;;;;;;;;;;5069306;28;20030;-78
2022/02/04 00:39:25;;;;;;;0.20;0.20;;;;;;;;;;5080742;28;20024;-81
2022/02/04 00:41:52;;;;;;;1.38;0.73;;;;;;;;;;5061016;28;20040;-81
2022/02/04 00:44:23;;;;;;;;;;;;;;;;;;5081118;28;20024;-81
2022/02/04 00:47:02;;;;;;;0.30;0.30;;;;;;;;;;5080814;28;20421;-81
2022/02/04 00:52:33;;;;;;;0.52;0.50;;;;;;;;;;5071475;28;20490;-81
2022/02/04 01:27:33;;;;;;;0.40;0.40;;;;;;;;;;4947152;28;20601;-79
2022/02/04 01:32:25;;;;;;;0.00;0.00;;;;;;;;;;4950130;28;20038;-79
2022/02/04 01:34:52;;;;;;;0.45;0.45;;;;;;;;;;4949612;28;20589;-79
2022/02/04 01:37:18;;;;;;;2.90;0.43;;;;;;;;;;4946286;28;20051;-79
2022/02/04 01:39:44;;;;;;;0.10;0.10;;;;;;;;;;4948352;28;20145;-79
2022/02/04 01:42:10;;;;;;;0.63;0.63;;;;;;;;;;4945192;28;20054;-79
2022/02/04 01:44:36;;;;;;;0.30;0.30;;;;;;;;;;5023668;28;20029;-78
2022/02/04 01:47:02;;;;;;;0.10;0.10;;;;;;;;;;5022987;28;20037;-78
2022/02/04 01:49:30;;;;;;;1.52;0.50;;;;;;;;;;5017892;28;20042;-78
2022/02/04 01:51:56;;;;;;;0.77;0.75;;;;;;;;;;5022286;28;20029;-78
2022/02/04 01:54:23;;;;;;;0.60;0.30;;;;;;;;;;5022375;28;20160;-78
2022/02/04 01:56:50;;;;;;;0.85;0.85;;;;;;;;;;5076605;28;20036;-78
2022/02/04 01:59:16;;;;;;;0.20;0.20;;;;;;;;;;5074095;28;20028;-78
2022/02/04 02:01:42;;;;;;;0.13;0.10;;;;;;;;;;5081036;28;20031;-78
2022/02/04 02:04:11;;;;;;;0.10;0.10;;;;;;;;;;5089804;28;20134;-78
2022/02/04 02:06:43;;;;;;;0.68;0.25;;;;;;;;;;5083036;28;20135;-78
2022/02/04 02:09:09;;;;;;;1.55;1.45;;;;;;;;;;5089961;28;20020;-78
2022/02/04 02:11:35;;;;;;;0.32;0.32;;;;;;;;;;5087964;28;20067;-77
2022/02/04 02:14:04;;;;;;;2.13;1.30;;;;;;;;;;5088630;28;20024;-78
2022/02/04 02:32:52;;;;;;;0.17;0.17;;;;;;;;;;5087021;28;20030;-77
2022/02/04 03:01:17;;;;;;;0.10;0.10;;;;;;;;;;5009602;28;20042;-78
2022/02/04 03:03:48;;;;;;;0.50;0.50;;;;;;;;;;5007375;28;20537;-78
2022/02/04 03:06:14;;;;;;;0.38;0.38;;;;;;;;;;4999484;28;20038;-77
2022/02/04 03:08:40;;;;;;;0.10;0.10;;;;;;;;;;4999074;28;20055;-78
2022/02/04 03:11:06;;;;;;;0.10;0.10;;;;;;;;;;5002539;28;20197;-77
2022/02/04 03:13:34;;;;;;;0.20;0.20;;;;;;;;;;5004979;28;20913;-77
2022/02/04 03:16:03;;;;;;;0.30;0.30;;;;;;;;;;5004693;28;20029;-78
2022/02/04 03:18:33;;;;;;;0.30;0.30;;;;;;;;;;5010230;28;20042;-77
2022/02/04 03:21:12;;;;;;;0.17;0.17;;;;;;;;;;5011192;28;20108;-79
2022/02/04 03:23:41;;;;;;;0.30;0.30;;;;;;;;;;5005004;28;20057;-79
2022/02/04 03:26:12;;;;;;;0.70;0.70;;;;;;;;;;4999040;28;20060;-79
2022/02/04 03:28:39;;;;;;;0.20;0.20;;;;;;;;;;5005255;28;20038;-79
2022/02/04 03:31:06;;;;;;;0.63;0.63;;;;;;;;;;5014120;28;20109;-80
2022/02/04 03:33:34;;;;;;;0.60;0.38;;;;;;;;;;5093223;28;20751;-79
2022/02/04 03:36:00;;;;;;;0.10;0.10;;;;;;;;;;5068866;28;20065;-80
2022/02/04 03:38:26;;;;;;;0.32;0.32;;;;;;;;;;5091624;28;20050;-78
2022/02/04 03:40:52;;;;;;;0.20;0.20;;;;;;;;;;5083962;28;20039;-79
2022/02/04 03:43:18;;;;;;;0.30;0.30;;;;;;;;;;5090748;28;20047;-79
2022/02/04 03:45:45;;;;;;;0.17;0.17;;;;;;;;;;5089714;28;20031;-78
2022/02/04 03:48:11;;;;;;;5.00;0.35;;;;;;;;;;5084026;28;20016;-78
2022/02/04 03:50:37;;;;;;;0.35;0.35;;;;;;;;;;5091476;28;20062;-78
2022/02/04 03:53:03;;;;;;;0.57;0.33;;;;;;;;;;5090241;28;20130;-78
2022/02/04 03:55:31;;;;;;;0.25;0.25;;;;;;;;;;5091023;28;20028;-78
2022/02/04 03:57:57;;;;;;;0.77;0.45;;;;;;;;;;5093493;28;20966;-78
2022/02/04 04:00:23;;;;;;;0.10;0.10;;;;;;;;;;5087017;28;20034;-78
2022/02/04 04:02:49;;;;;;;0.17;0.17;;;;;;;;;;5089816;28;20075;-78
2022/02/04 04:05:15;;;;;;;2.23;1.03;;;;;;;;;;5072690;28;20032;-79
2022/02/04 04:07:45;;;;;;;0.10;0.10;;;;;;;;;;5086171;28;20032;-79
2022/02/04 04:10:17;;;;;;;0.10;0.10;;;;;;;;;;5090244;28;20024;-79
2022/02/04 04:12:43;;;;;;;0.63;0.63;;;;;;;;;;5093089;28;20119;-78
2022/02/04 04:15:10;;;;;;;0.10;0.10;;;;;;;;;;5070023;28;20073;-78
2022/02/04 04:17:42;;;;;;;0.47;0.47;;;;;;;;;;5070680;28;20547;-77
2022/02/04 04:20:09;;;;;;;0.40;0.40;;;;;;;;;;5086076;28;20023;-77
2022/02/04 04:22:36;;;;;;;0.38;0.38;;;;;;;;;;5085296;28;20471;-79
2022/02/04 04:25:03;;;;;;;0.10;0.10;;;;;;;;;;5073840;28;20295;-78
2022/02/04 04:27:29;;;;;;;0.10;0.10;;;;;;;;;;5089005;28;20037;-78
2022/02/04 04:29:55;;;;;;;0.10;0.10;;;;;;;;;;5091403;28;20024;-78
2022/02/04 04:32:21;;;;;;;0.10;0.10;;;;;;;;;;5082479;28;20027;-78
2022/02/04 04:34:47;;;;;;;22.00;2.67;;;;;;;;;;5085302;28;20047;-78
2022/02/04 04:37:13;;;;;;;0.10;0.10;;;;;;;;;;5067997;28;20367;-78
2022/02/04 04:39:56;;;;;;;0.10;0.10;;;;;;;;;;5086265;28;20036;-78
2022/02/04 04:42:35;;;;;;;1.15;0.57;;;;;;;;;;5079180;28;20030;-78
2022/02/04 05:29:08;;;;;;;0.00;0.00;;;;;;;;;;5090780;28;20036;-78
2022/02/04 05:31:34;;;;;;;0.10;0.10;;;;;;;;;;5093374;28;20578;-79
2022/02/04 05:34:00;;;;;;;1.93;1.37;;;;;;;;;;5089262;28;20042;-79
2022/02/04 05:36:26;;;;;;;1.03;0.67;;;;;;;;;;5095674;28;20270;-80
2022/02/04 05:38:54;;;;;;;0.10;0.10;;;;;;;;;;5085680;28;20032;-80
2022/02/04 05:41:27;;;;;;;1.23;1.13;;;;;;;;;;5094711;28;20416;-80
2022/02/04 05:43:55;;;;;;;0.32;0.32;;;;;;;;;;5089070;28;20571;-78
2022/02/04 05:46:27;;;;;;;0.25;0.25;;;;;;;;;;5086993;28;20054;-80
2022/02/04 05:48:54;;;;;;;0.43;0.43;;;;;;;;;;5093770;28;20134;-79
2022/02/04 05:54:13;;;;;;;1.58;1.08;;;;;;;;;;5095168;28;20067;-79
2022/02/04 06:22:21;;;;;;;0.13;0.13;;;;;;;;;;5084932;28;20050;-77
2022/02/04 06:24:47;;;;;;;0.10;0.10;;;;;;;;;;5089929;28;20039;-77
2022/02/04 06:27:13;;;;;;;0.10;0.10;;;;;;;;;;5083035;28;20031;-76
2022/02/04 06:29:39;;;;;;;0.20;0.20;;;;;;;;;;5078783;28;20055;-76
2022/02/04 06:32:06;;;;;;;0.13;0.13;;;;;;;;;;5086914;28;20088;-80
2022/02/04 06:34:32;;;;;;;0.30;0.30;;;;;;;;;;5082592;28;20510;-82
2022/02/04 06:36:58;;;;;;;0.10;0.10;;;;;;;;;;5078740;28;20295;-81
2022/02/04 06:39:24;;;;;;;0.35;0.35;;;;;;;;;;5075223;28;20554;-81
2022/02/04 06:41:50;;;;;;;0.17;0.17;;;;;;;;;;5084346;28;20125;-79
2022/02/04 06:44:16;;;;;;;5.13;1.02;;;;;;;;;;5081042;28;20492;-78
2022/02/04 06:46:42;;;;;;;0.57;0.57;;;;;;;;;;5060286;28;20101;-79
2022/02/04 06:49:08;;;;;;;0.45;0.45;;;;;;;;;;5081021;28;20126;-82
2022/02/04 06:51:34;;;;;;;0.20;0.20;;;;;;;;;;5067430;28;20031;-78
2022/02/04 06:54:00;;;;;;;0.20;0.20;;;;;;;;;;5081173;28;20130;-87
2022/02/04 06:56:26;;;;;;;0.50;0.43;;;;;;;;;;5080353;28;20024;-79
2022/02/04 06:58:53;;;;;;;0.30;0.30;;;;;;;;;;5077927;28;20063;-80
2022/02/04 07:01:19;;;;;;;0.87;0.87;;;;;;;;;;5078385;28;20407;-80
2022/02/04 07:03:45;;;;;;;1.25;1.17;;;;;;;;;;5080911;28;20052;-84
2022/02/04 07:06:16;;;;;;;4.05;1.25;;;;;;;;;;5074659;28;20056;-81
2022/02/04 07:21:48;;;;;;;0.20;0.20;;;;;;;;;;5080325;28;20625;-80
2022/02/04 07:24:14;;;;;;;0.10;0.10;;;;;;;;;;5067188;28;20032;-81
2022/02/04 07:26:40;;;;;;;0.40;0.40;;;;;;;;;;5083994;28;20031;-79
2022/02/04 07:29:06;;;;;;;1.15;0.47;;;;;;;;;;5079917;28;20032;-78
2022/02/04 07:31:36;;;;;;;0.10;0.10;;;;;;;;;;5069243;28;20024;-81
2022/02/04 07:42:01;;;;;;;0.15;0.15;;;;;;;;;;5082318;28;20032;-79
2022/02/04 07:44:27;;;;;;;;;;;;;;;;;;5068305;28;20043;-78
2022/02/04 07:46:53;;;;;;;2.08;1.17;;;;;;;;;;5066090;28;19913;-79
2022/02/04 07:49:19;;;;;;;0.73;0.57;;;;;;;;;;5069070;28;20034;-79
2022/02/04 07:51:45;;;;;;;0.57;0.57;;;;;;;;;;5078969;28;20028;-79
2022/02/04 07:54:11;;;;;;;0.35;0.35;;;;;;;;;;5080022;28;20048;-78
2022/02/04 07:56:37;;;;;;;0.10;0.10;;;;;;;;;;5079101;28;20024;-78
2022/02/04 07:59:08;;;;;;;0.20;0.20;;;;;;;;;;5077048;28;20024;-79
2022/02/04 08:01:34;;;;;;;0.28;0.28;;;;;;;;;;5054001;28;20024;-78
2022/02/04 08:04:17;;;;;;;0.40;0.40;;;;;;;;;;5066663;28;20119;-78
2022/02/04 08:06:58;;;;;;;15.60;6.85;;;;;;;;;;5079219;28;20779;-78
2022/02/04 08:56:48;;;;;;;0.47;0.47;;;;;;;;;;5068462;28;20037;-78
2022/02/04 08:59:50;;;;;;;1.67;0.95;;;;;;;;;;5075744;28;20050;-78
2022/02/04 09:02:10;;;;;;;0.52;0.52;;;;;;;;;;5070118;28;20856;-79
2022/02/04 09:04:43;;;;;;;0.20;0.20;;;;;;;;;;5075634;28;20117;-78
2022/02/04 09:07:12;;;;;;;0.17;0.17;;;;;;;;;;5080432;28;20444;-79
2022/02/04 09:09:58;;;;;;;0.30;0.30;;;;;;;;;;5083228;28;20020;-78
2022/02/04 09:20:36;;;;;;;0.10;0.10;;;;;;;;;;5080966;28;20036;-78
2022/02/04 09:23:02;;;;;;;0.40;0.40;;;;;;;;;;5074211;28;20033;-78
2022/02/04 09:25:28;;;;;;;0.27;0.20;;;;;;;;;;5073294;28;20063;-78
2022/02/04 09:27:54;;;;;;;0.10;0.10;;;;;;;;;;5080769;28;20032;-79
2022/02/04 09:30:21;;;;;;;1.10;1.10;;;;;;;;;;5084113;28;20024;-78
2022/02/04 09:32:47;;;;;;;0.30;0.30;;;;;;;;;;5082095;28;20267;-78
2022/02/04 09:35:15;;;;;;;1.50;1.20;;;;;;;;;;5079825;28;20035;-78
2022/02/04 09:37:42;;;;;;;1.17;1.10;;;;;;;;;;5079699;28;20201;-78
2022/02/04 09:40:09;;;;;;;1.70;0.52;;;;;;;;;;5081611;28;20016;-78
2022/02/04 09:42:35;;;;;;;;;;;;;;;;;;5069210;28;20040;-78
2022/02/04 09:45:01;;;;;;;0.30;0.30;;;;;;;;;;5081298;28;19915;-78
2022/02/04 09:47:38;;;;;;;0.65;0.65;;;;;;;;;;5080942;28;20815;-78
2022/02/04 09:50:12;;;;;;;0.50;0.50;;;;;;;;;;5080129;28;20369;-79
2022/02/04 10:22:03;;;;;;;0.10;0.10;;;;;;;;;;5068253;28;20032;-79
2022/02/04 10:24:30;;;;;;;0.32;0.28;;;;;;;;;;5083346;28;20032;-80
2022/02/04 10:27:19;;;;;;;0.15;0.15;;;;;;;;;;5081912;28;20656;-80
2022/02/04 10:30:04;;;;;;;1.88;0.45;;;;;;;;;;5060598;28;20033;-80
2022/02/04 10:32:37;;;;;;;0.80;0.80;;;;;;;;;;5080979;28;20415;-80
2022/02/04 10:35:06;;;;;;;9.70;5.68;;;;;;;;;;5079226;28;20098;-80
2022/02/04 10:37:35;;;;;;;2.17;1.55;;;;;;;;;;5079007;28;20486;-80
2022/02/04 10:40:11;;;;;;;0.30;0.30;;;;;;;;;;5081369;28;20073;-79
2022/02/04 10:42:56;;;;;;;;;;;;;;;;;;5068145;28;20143;-79
2022/02/04 10:48:10;;;;;;;2.28;1.27;;;;;;;;;;5081483;28;20034;-80
2022/02/04 11:01:10;;;;;;;0.15;0.15;;;;;;;;;;5067270;28;19912;-79
2022/02/04 11:03:41;;;;;;;0.10;0.10;;;;;;;;;;5067536;28;20048;-80
2022/02/04 11:11:46;;;;;;;0.80;0.63;;;;;;;;;;5070445;28;20522;-78
2022/02/04 11:36:36;;;;;;;0.55;0.50;;;;;;;;;;5080119;28;20518;-78
2022/02/04 11:43:47;;;;;;;1.50;1.23;;;;;;;;;;5068945;28;20047;-79
2022/02/04 11:48:15;;;;;;;0.10;0.10;;;;;;;;;;5079699;28;20450;-79
2022/02/04 11:51:16;;;;;;;0.65;0.50;;;;;;;;;;5074356;28;20036;-79
2022/02/04 11:53:55;;;;;;;0.35;0.35;;;;;;;;;;5076167;28;20133;-79
2022/02/04 11:56:19;;;;;;;;;;;;;;;;;;5075401;28;20066;-79
2022/02/04 11:58:59;;;;;;;0.73;0.38;;;;;;;;;;5074110;28;19913;-79
2022/02/04 12:01:25;;;;;;;0.50;0.50;;;;;;;;;;5081924;28;20097;-79
2022/02/04 12:03:55;;;;;;;0.30;0.30;;;;;;;;;;5078158;28;20423;-79
2022/02/04 12:06:28;;;;;;;0.20;0.20;;;;;;;;;;5068056;28;20032;-79
2022/02/04 12:09:11;;;;;;;0.40;0.40;;;;;;;;;;5093664;28;20038;-79
2022/02/04 12:11:40;;;;;;;0.20;0.20;;;;;;;;;;5073321;28;20471;-79
2022/02/04 12:14:10;;;;;;;0.50;0.50;;;;;;;;;;5072590;28;20032;-79
2022/02/04 12:16:37;;;;;;;0.20;0.20;;;;;;;;;;5070267;28;20062;-80
2022/02/04 12:19:08;;;;;;;0.40;0.40;;;;;;;;;;5077076;28;20092;-79
2022/02/04 12:21:44;;;;;;;3.10;0.60;;;;;;;;;;5065599;28;20032;-79
2022/02/04 12:24:29;;;;;;;1.80;1.10;;;;;;;;;;5073269;28;20032;-80
2022/02/04 12:27:15;;;;;;;0.20;0.20;;;;;;;;;;5071984;28;20040;-79
2022/02/04 12:29:41;;;;;;;0.45;0.45;;;;;;;;;;5080650;28;20689;-80
2022/02/04 12:32:08;;;;;;;1.38;0.65;;;;;;;;;;5071461;28;20063;-79
2022/02/04 12:34:35;;;;;;;1.80;0.73;;;;;;;;;;5073814;28;20081;-79
2022/02/04 12:37:02;;;;;;;0.70;0.70;;;;;;;;;;5079300;28;20070;-79
2022/02/04 12:39:32;;;;;;;0.20;0.20;;;;;;;;;;5066643;28;20020;-79
2022/02/04 12:41:59;;;;;;;17.52;1.73;;;;;;;;;;5079537;28;20680;-79
2022/02/04 12:44:25;;;;;;;;;;;;;;;;;;5080589;28;20036;-79
2022/02/04 12:46:53;;;;;;;0.30;0.30;;;;;;;;;;5081110;28;19911;-79
2022/02/04 12:49:20;;;;;;;1.40;1.05;;;;;;;;;;5076877;28;20036;-79
2022/02/04 12:51:56;;;;;;;;;;;;;;;;;;5079331;28;20053;-79
2022/02/04 12:54:34;;;;;;;0.47;0.47;;;;;;;;;;5080960;28;20363;-79
2022/02/04 13:10:17;;;;;;;2.00;1.20;;;;;;;;;;5033388;28;20829;-79
2022/02/04 13:12:49;;;;;;;0.30;0.30;;;;;;;;;;5035951;28;20039;-80
2022/02/04 13:15:16;;;;;;;0.82;0.82;;;;;;;;;;5036812;28;20039;-80
2022/02/04 13:17:42;;;;;;;1.20;1.15;;;;;;;;;;5034263;28;20059;-79
2022/02/04 13:20:08;;;;;;;1.37;1.30;;;;;;;;;;5033744;28;20501;-79
2022/02/04 13:22:37;;;;;;;1.42;0.95;;;;;;;;;;5033322;28;20717;-79
2022/02/04 13:25:11;;;;;;;0.43;0.43;;;;;;;;;;5029751;28;20055;-80
2022/02/04 13:27:37;;;;;;;0.40;0.40;;;;;;;;;;5036758;28;20060;-79
2022/02/04 13:30:22;;;;;;;1.40;0.77;;;;;;;;;;5036332;28;20527;-79
2022/02/04 13:32:48;;;;;;;0.63;0.63;;;;;;;;;;5024504;28;20029;-80
2022/02/04 13:35:31;;;;;;;0.65;0.65;;;;;;;;;;5031262;28;20037;-80
2022/02/04 13:38:04;;;;;;;0.22;0.22;;;;;;;;;;5071245;28;20068;-80
2022/02/04 13:40:46;;;;;;;0.70;0.70;;;;;;;;;;5054160;28;20036;-80
2022/02/04 13:43:39;;;;;;;0.40;0.40;;;;;;;;;;5066720;28;20040;-80
2022/02/04 13:46:43;;;;;;;0.20;0.20;;;;;;;;;;5076323;28;20107;-80
2022/02/04 13:50:06;;;;;;;0.30;0.30;;;;;;;;;;5073440;28;20035;-80
2022/02/04 13:57:11;;;;;;;0.52;0.52;;;;;;;;;;5084305;28;20032;-80
2022/02/04 13:59:52;;;;;;;0.82;0.80;;;;;;;;;;5061287;28;20032;-80
2022/02/04 14:02:25;;;;;;;0.60;0.60;;;;;;;;;;5082123;28;20067;-80
2022/02/04 14:04:57;;;;;;;0.75;0.75;;;;;;;;;;5081921;28;20487;-80
2022/02/04 14:07:33;;;;;;;0.60;0.60;;;;;;;;;;5080646;28;20028;-80
2022/02/04 14:10:07;;;;;;;1.27;0.70;;;;;;;;;;5083484;28;20032;-80
2022/02/04 14:12:33;;;;;;;0.20;0.20;;;;;;;;;;5083517;28;20039;-79
2022/02/04 14:15:00;;;;;;;1.75;0.68;;;;;;;;;;5065006;28;20024;-80
2022/02/04 14:17:31;;;;;;;0.52;0.52;;;;;;;;;;5064377;28;20107;-80
2022/02/04 14:19:57;;;;;;;0.43;0.30;;;;;;;;;;5074463;28;20052;-79
2022/02/04 14:22:24;;;;;;;3.65;0.30;;;;;;;;;;5070888;28;20551;-80
2022/02/04 14:24:51;;;;;;;0.30;0.28;;;;;;;;;;5069785;28;20032;-80
2022/02/04 14:27:17;;;;;;;9.82;0.82;;;;;;;;;;5049777;28;20039;-80
2022/02/04 14:30:13;;;;;;;0.32;0.32;;;;;;;;;;5082631;28;20032;-80
2022/02/04 14:32:46;;;;;;;0.30;0.30;;;;;;;;;;5079712;28;20054;-79
2022/02/04 14:35:27;;;;;;;2.45;1.10;;;;;;;;;;5072015;28;20234;-80
2022/02/04 15:02:22;;;;;;;2.08;1.15;;;;;;;;;;4923618;29;20039;-80
2022/02/04 15:04:50;;;;;;;0.85;0.85;;;;;;;;;;4925917;29;20209;-80
2022/02/04 15:07:18;;;;;;;0.47;0.45;;;;;;;;;;4940634;28;20599;-80
2022/02/04 15:09:54;;;;;;;0.17;0.17;;;;;;;;;;4928207;29;20142;-80
2022/02/04 15:12:22;;;;;;;0.43;0.40;;;;;;;;;;4941125;28;20456;-80
2022/02/04 15:14:48;;;;;;;1.63;1.50;;;;;;;;;;4924633;29;20213;-80
2022/02/04 15:17:14;;;;;;;0.32;0.32;;;;;;;;;;4945962;28;20083;-79
2022/02/04 15:19:42;;;;;;;0.10;0.10;;;;;;;;;;4944438;28;20031;-80
2022/02/04 15:22:09;;;;;;;0.25;0.25;;;;;;;;;;4944185;28;20039;-80
2022/02/04 15:24:35;;;;;;;0.60;0.60;;;;;;;;;;4944140;28;20144;-79
2022/02/04 15:27:03;;;;;;;0.40;0.40;;;;;;;;;;4943157;28;20031;-79
2022/02/04 15:29:31;;;;;;;0.10;0.10;;;;;;;;;;4960128;28;20828;-79
2022/02/04 15:31:59;;;;;;;0.63;0.40;;;;;;;;;;4960386;28;20038;-80
2022/02/04 15:34:26;;;;;;;1.27;1.05;;;;;;;;;;4990250;28;20033;-80
2022/02/04 15:36:52;;;;;;;1.40;1.30;;;;;;;;;;5064862;28;20596;-79
2022/02/04 15:39:19;;;;;;;0.80;0.80;;;;;;;;;;5080090;28;20059;-80
2022/02/04 15:41:52;;;;;;;0.50;0.50;;;;;;;;;;5066302;28;20032;-80
2022/02/04 15:44:37;;;;;;;0.47;0.47;;;;;;;;;;5065916;28;20138;-79
2022/02/04 15:47:26;;;;;;;1.42;1.33;;;;;;;;;;5065962;28;20051;-79
2022/02/04 16:03:13;;;;;;;0.45;0.38;;;;;;;;;;5068121;28;20044;-80
2022/02/04 16:05:35;;;;;;;0.35;0.30;;;;;;;;;;5070061;28;20116;-80
2022/02/04 16:08:01;;;;;;;0.68;0.68;;;;;;;;;;5068531;28;20036;-79
2022/02/04 16:10:37;;;;;;;0.93;0.93;;;;;;;;;;5065998;28;20032;-79
2022/02/04 16:18:02;;;;;;;0.75;0.55;;;;;;;;;;5064612;28;20381;-80
2022/02/04 16:21:19;;;;;;;0.98;0.70;;;;;;;;;;5066131;28;20028;-80
2022/02/04 16:28:52;;;;;;;1.00;1.00;;;;;;;;;;5002635;28;20040;-80
2022/02/04 16:31:19;;;;;;;1.23;1.23;;;;;;;;;;5003575;28;20041;-80
2022/02/04 16:33:46;;;;;;;0.13;0.13;;;;;;;;;;5003499;28;20418;-80
2022/02/04 16:36:15;;;;;;;1.08;1.08;;;;;;;;;;4983573;28;20164;-80
2022/02/04 16:38:44;;;;;;;0.90;0.90;;;;;;;;;;5004567;28;20038;-79
2022/02/04 16:41:12;;;;;;;1.65;1.50;;;;;;;;;;5016023;28;20025;-80
2022/02/04 16:43:39;;;;;;;0.50;0.50;;;;;;;;;;5015952;28;20963;-79
2022/02/04 16:46:06;;;;;;;3.17;0.68;;;;;;;;;;5015796;28;20036;-80
2022/02/04 16:48:33;;;;;;;5.05;1.85;;;;;;;;;;5014051;28;20068;-80
2022/02/04 16:50:59;;;;;;;0.52;0.50;;;;;;;;;;5019802;28;20444;-82
2022/02/04 16:53:27;;;;;;;0.33;0.33;;;;;;;;;;5019131;28;20583;-84
2022/02/04 16:55:54;;;;;;;0.75;0.63;;;;;;;;;;5001418;28;20291;-81
2022/02/04 16:58:20;;;;;;;0.90;0.90;;;;;;;;;;5008497;28;20116;-78
2022/02/04 17:00:46;;;;;;;0.40;0.40;;;;;;;;;;5019133;28;20037;-78
2022/02/04 17:03:12;;;;;;;1.63;0.57;;;;;;;;;;5050862;28;20101;-78
2022/02/04 17:06:01;;;;;;;1.30;0.57;;;;;;;;;;5078944;28;20031;-79
2022/02/04 17:08:35;;;;;;;1.35;1.05;;;;;;;;;;5079074;28;20027;-79
2022/02/04 17:11:02;;;;;;;0.60;0.60;;;;;;;;;;5076422;28;20028;-80
2022/02/04 17:13:29;;;;;;;0.40;0.22;;;;;;;;;;5078860;28;20020;-78
2022/02/04 17:15:55;;;;;;;;;;;;;;;;;;5080292;28;20035;-79
2022/02/04 17:18:21;;;;;;;0.98;0.93;;;;;;;;;;5079786;28;19965;-78
2022/02/04 17:20:48;;;;;;;1.10;0.93;;;;;;;;;;5081369;28;20388;-78
2022/02/04 17:23:22;;;;;;;2.25;0.93;;;;;;;;;;5075372;28;20032;-80
2022/02/04 17:25:49;;;;;;;0.52;0.52;;;;;;;;;;5080947;28;20028;-79
2022/02/04 17:28:15;;;;;;;3.63;1.55;;;;;;;;;;5081129;28;20028;-81
2022/02/04 17:30:41;;;;;;;2.17;1.85;;;;;;;;;;5065776;28;20028;-80
2022/02/04 17:33:07;;;;;;;4.32;2.65;;;;;;;;;;5080767;28;20050;-80
2022/02/04 17:35:33;;;;;;;6.90;1.50;;;;;;;;;;5075908;28;20058;-79
2022/02/04 17:38:01;;;;;;;0.63;0.63;;;;;;;;;;5074849;28;20140;-80
2022/02/04 17:40:27;;;;;;;0.55;0.40;;;;;;;;;;5074344;28;20031;-82
2022/02/04 17:42:55;;;;;;;0.53;0.53;;;;;;;;;;5068295;28;20514;-82
2022/02/04 17:45:22;;;;;;;1.95;1.52;;;;;;;;;;5067825;28;20074;-80
2022/02/04 17:48:04;;;;;;;3.03;2.70;;;;;;;;;;5074107;28;20031;-82
2022/02/04 17:50:40;;;;;;;1.92;1.75;;;;;;;;;;5077805;28;20029;-83
2022/02/04 17:53:14;;;;;;;2.42;1.95;;;;;;;;;;5078190;28;20055;-83
2022/02/04 17:55:47;;;;;;;13.43;4.72;;;;;;;;;;5079657;28;20035;-82
2022/02/04 18:01:13;;;;;;;1.58;1.48;;;;;;;;;;5079619;28;20393;-82
2022/02/04 18:06:25;;;;;;;1.15;1.08;;;;;;;;;;5080569;28;20028;-82
2022/02/04 18:08:51;;;;;;;0.98;0.98;;;;;;;;;;5055863;28;20067;-83
2022/02/04 18:11:17;;;;;;;6.53;2.50;;;;;;;;;;5078268;28;20024;-79
2022/02/04 18:13:43;;;;;;;1.92;1.73;;;;;;;;;;5073502;28;20042;-83
2022/02/04 18:16:10;;;;;;;5.13;2.17;;;;;;;;;;5053571;28;20411;-83
2022/02/04 18:18:37;;;;;;;0.35;0.35;;;;;;;;;;5070001;28;20756;-83
2022/02/04 18:21:03;;;;;;;5.68;3.58;;;;;;;;;;5074444;28;20024;-82
2022/02/04 18:23:30;;;;;;;2.08;1.58;;;;;;;;;;5069180;28;20044;-81
2022/02/04 18:25:56;;;;;;;1.02;0.98;;;;;;;;;;5070738;28;20028;-85
2022/02/04 18:28:23;;;;;;;2.03;1.67;;;;;;;;;;5067792;28;20766;-82
2022/02/04 18:30:49;;;;;;;1.45;1.35;;;;;;;;;;5074688;28;20043;-84
2022/02/04 18:33:16;;;;;;;2.30;1.33;;;;;;;;;;5071603;28;20032;-82
2022/02/04 18:35:43;;;;;;;0.80;0.80;;;;;;;;;;5073962;28;20063;-84
2022/02/04 18:38:29;;;;;;;0.80;0.65;;;;;;;;;;5067581;28;20082;-82
2022/02/04 18:46:03;;;;;;;3.20;1.83;;;;;;;;;;5065892;28;20040;-86
2022/02/04 18:48:39;;;;;;;1.58;1.48;;;;;;;;;;5069263;28;20032;-84
2022/02/04 18:52:01;;;;;;;3.38;2.42;;;;;;;;;;5070028;28;20074;-85
2022/02/04 18:54:10;;;;;;;9.40;2.45;;;;;;;;;;5060583;28;20534;-84
2022/02/04 18:59:18;;;;;;;4.35;3.20;;;;;;;;;;5068507;28;20601;-86
2022/02/04 19:01:46;;;;;;;35.10;4.90;;;;;;;;;;5052953;28;20262;-84
2022/02/04 19:04:16;;;;;;;3.88;1.27;;;;;;;;;;5066803;28;20294;-82
2022/02/04 19:06:47;;;;;;;1.63;1.52;;;;;;;;;;5064924;28;20089;-82
2022/02/04 19:09:14;;;;;;;1.17;1.08;;;;;;;;;;5065971;28;20048;-83
2022/02/04 19:11:45;;;;;;;1.35;0.80;;;;;;;;;;5069253;28;20028;-83
2022/02/04 19:14:16;;;;;;;2.13;1.75;;;;;;;;;;5065197;28;21814;-82
2022/02/04 19:21:48;;;;;;;1.38;1.27;;;;;;;;;;5069776;28;20037;-83
2022/02/04 19:24:14;;;;;;;1.55;1.45;;;;;;;;;;5067288;28;20055;-82
2022/02/04 19:26:41;;;;;;;0.47;0.47;;;;;;;;;;5071662;28;20070;-82
2022/02/04 19:29:07;;;;;;;1.17;1.13;;;;;;;;;;5069896;28;20603;-82
2022/02/04 19:31:43;;;;;;;0.60;0.55;;;;;;;;;;5070891;28;20024;-82
2022/02/04 19:34:09;;;;;;;2.72;1.02;;;;;;;;;;5073493;28;20578;-82
2022/02/04 19:36:36;;;;;;;2.20;0.73;;;;;;;;;;5076927;28;20063;-83
2022/02/04 19:39:03;;;;;;;2.58;1.70;;;;;;;;;;5079713;28;20019;-83
2022/02/04 19:41:32;;;;;;;;;;;;;;;;;;5072892;28;20024;-82
2022/02/04 19:43:59;;;;;;;3.40;1.35;;;;;;;;;;5069817;28;19973;-83
2022/02/04 19:46:29;;;;;;;;;;;;;;;;;;5072465;28;20405;-83
2022/02/04 19:48:58;;;;;;;0.82;0.43;;;;;;;;;;5066237;28;19999;-83
2022/02/04 19:54:24;;;;;;;3.55;1.75;;;;;;;;;;5071908;28;20052;-83
2022/02/04 20:14:28;;;;;;;0.43;0.43;;;;;;;;;;5066836;28;21169;-83
2022/02/04 20:24:47;;;;;;;1.20;1.15;;;;;;;;;;5069757;28;20643;-83
2022/02/04 20:27:13;;;;;;;1.20;1.15;;;;;;;;;;5070085;28;20579;-83
2022/02/04 20:29:39;;;;;;;1.63;0.87;;;;;;;;;;5069004;28;20764;-83
2022/02/04 20:32:05;;;;;;;2.47;0.93;;;;;;;;;;5066882;28;20496;-83
2022/02/04 20:34:31;;;;;;;1.13;1.13;;;;;;;;;;5070266;28;20050;-83
2022/02/04 20:36:57;;;;;;;0.80;0.77;;;;;;;;;;5061164;28;20539;-82
2022/02/04 20:39:32;;;;;;;0.45;0.45;;;;;;;;;;5065000;28;20025;-83
2022/02/04 20:41:58;;;;;;;0.47;0.40;;;;;;;;;;5070356;28;20123;-82
2022/02/04 20:44:28;;;;;;;0.68;0.68;;;;;;;;;;5063046;28;20096;-82
2022/02/04 20:46:54;;;;;;;1.63;1.13;;;;;;;;;;5066687;28;20056;-82
2022/02/04 20:49:20;;;;;;;0.93;0.93;;;;;;;;;;5070622;28;20486;-83
2022/02/04 20:51:46;;;;;;;3.67;0.77;;;;;;;;;;5070971;28;20024;-82
2022/02/04 20:54:12;;;;;;;0.50;0.50;;;;;;;;;;5069673;28;20045;-82
2022/02/04 20:56:38;;;;;;;0.30;0.30;;;;;;;;;;5067902;28;20032;-82
2022/02/04 20:59:04;;;;;;;1.43;1.30;;;;;;;;;;5069020;28;20043;-83
2022/02/04 21:01:30;;;;;;;12.93;1.23;;;;;;;;;;5072849;28;20028;-83
2022/02/04 21:03:59;;;;;;;6.53;1.60;;;;;;;;;;5072146;28;20051;-82
2022/02/04 21:06:41;;;;;;;0.10;0.10;;;;;;;;;;5073124;28;20024;-84
2022/02/04 21:14:35;;;;;;;0.45;0.45;;;;;;;;;;5072622;28;20102;-82
2022/02/04 21:17:01;;;;;;;4.07;1.17;;;;;;;;;;5061333;28;20032;-81
2022/02/04 21:19:27;;;;;;;6.90;3.17;;;;;;;;;;5072182;28;20217;-81
2022/02/04 21:21:53;;;;;;;10.53;2.97;;;;;;;;;;5073092;28;20097;-81
2022/02/04 21:24:19;;;;;;;1.40;1.25;;;;;;;;;;5072685;28;20286;-82
2022/02/04 21:26:45;;;;;;;6.20;2.22;;;;;;;;;;5075008;28;20020;-81
2022/02/04 21:29:11;;;;;;;0.60;0.60;;;;;;;;;;5075845;28;20059;-82
2022/02/04 21:31:42;;;;;;;0.45;0.45;;;;;;;;;;5071923;28;20032;-82
2022/02/04 21:37:03;;;;;;;3.03;2.28;;;;;;;;;;5018680;28;20723;-81
2022/02/04 21:39:29;;;;;;;1.40;1.15;;;;;;;;;;4992209;28;20121;-81
2022/02/04 21:41:55;;;;;;;4.03;1.77;;;;;;;;;;5021280;28;20111;-81
2022/02/04 21:44:21;;;;;;;0.68;0.68;;;;;;;;;;5018615;28;20080;-81
2022/02/04 21:46:47;;;;;;;3.30;2.63;;;;;;;;;;5018339;28;20049;-82
2022/02/04 21:49:13;;;;;;;2.10;1.93;;;;;;;;;;5019569;28;20049;-81
2022/02/04 21:51:39;;;;;;;2.00;1.60;;;;;;;;;;5018267;28;20045;-82
2022/02/04 21:54:05;;;;;;;0.55;0.55;;;;;;;;;;5019189;28;20060;-81
2022/02/04 21:56:32;;;;;;;1.50;1.40;;;;;;;;;;5018520;28;20025;-82
2022/02/04 21:58:58;;;;;;;15.47;4.50;;;;;;;;;;5017343;28;20509;-82
2022/02/04 22:01:24;;;;;;;3.70;3.35;;;;;;;;;;5017844;28;20045;-82
2022/02/04 22:03:50;;;;;;;2.35;1.90;;;;;;;;;;5019038;28;20179;-82
2022/02/04 22:06:16;;;;;;;0.25;0.25;;;;;;;;;;5018324;28;20068;-82
2022/02/04 22:24:29;;;;;;;9.32;4.65;;;;;;;;;;5088354;28;20836;-78
2022/02/04 22:26:56;;;;;;;6.50;3.78;;;;;;;;;;5080902;28;20088;-80
2022/02/04 22:29:24;;;;;;;3.90;2.55;;;;;;;;;;5078834;28;20034;-80
2022/02/04 22:31:50;;;;;;;3.88;3.33;;;;;;;;;;5081128;28;20366;-80
2022/02/04 22:42:29;;;;;;;5.45;2.25;;;;;;;;;;5081171;28;20027;-80
2022/02/04 22:50:19;;;;;;;0.20;0.20;;;;;;;;;;5078663;28;20044;-80
2022/02/04 22:58:14;;;;;;;0.32;0.32;;;;;;;;;;5080524;28;20036;-80
2022/02/04 23:00:44;;;;;;;0.22;0.22;;;;;;;;;;5081811;28;20019;-81
2022/02/04 23:03:21;;;;;;;0.30;0.30;;;;;;;;;;5076611;28;20024;-80